West Elizabeth, PA (15088)

11:00 PM EDT on July 24, 2016 (GMT -0400)
Jefferson Hills | | Change Station

Elev 919 ft 40.29 °N, 79.91 °W | Updated 16 seconds ago

Fog
Fog
75.7 °F
Feels Like 77 °F
N
0.0
Wind Variable Wind from South
Gusts 0.0 mph

Today
High -- | Low -- °F
--% Chance of Precip.
Yesterday
High -- | Low -- °F
Precip. -- in
Pressure 30.01 in
Visibility 0.5 miles
Clouds
Heat Index 77 °F
Dew Point 67 °F
Humidity 74%
Rainfall 0.58 in
Snow Depth Not available.
6:10 AM 8:41 PM
Waning Gibbous, 70% visible
METAR KAGC 250253Z 14004KT 1/2SM R28/2200VP6000FT FG VV001 22/21 A3003 RMK AO2 SLP163 T02220206 55000 $
Pressure 30.01 in
Visibility 0.5 miles
Clouds
Heat Index 77 °F
Dew Point 67 °F
Humidity 74%
Rainfall 0.58 in
Snow Depth Not available.
6:10 AM 8:41 PM
Waning Gibbous, 70% visible
METAR KAGC 250253Z 14004KT 1/2SM R28/2200VP6000FT FG VV001 22/21 A3003 RMK AO2 SLP163 T02220206 55000 $

10-Day Weather Forecast

Almanac

Astronomy

Jul. 24, 2016 Rise Set
Actual Time
Civil Twilight
Nautical Twilight
Astronomical Twilight
Moon
Length of Visible Light
Length of Day
Tomorrow will be .
, % of the Moon is Illuminated

Today's Extremes

State Highs State Lows

Community

WunderPhotos

Upload Photos

1,927,246 photos uploaded!

WunderBlog® & News

Nearby

Air Quality

  Air Quality AQ Index Pollutant
Not available.

Snow Depth

Station Depth Elevation

Earthquake Activity

City Distance Mag. Time & Date
Minimum magnitude displayed is 2.5.

Coastal Water Temperatures

Place Temperature

Stations

Nearby Weather Stations

Station Location Temp. Windchill Dew Point Humidity Wind Precip. Elev Updated Type
                   

Watches & Warnings

There are currently no watches in effect.